createdAt,value
2019-01-10T00:00:56.496Z,215.08
2019-01-10T00:01:56.644Z,215.15
2019-01-10T00:02:56.774Z,215.12
2019-01-10T00:03:56.916Z,215.15
2019-01-10T00:04:57.167Z,215.15
2019-01-10T00:05:57.201Z,215.20
2019-01-10T00:06:57.330Z,215.16
2019-01-10T00:07:57.487Z,215.16
2019-01-10T00:08:57.623Z,215.20
2019-01-10T00:09:57.766Z,215.20
2019-01-10T00:10:57.918Z,215.16
2019-01-10T00:11:58.032Z,215.17
2019-01-10T00:12:58.267Z,215.23
2019-01-10T00:13:58.306Z,215.20
2019-01-10T00:14:58.449Z,215.20
2019-01-10T00:15:58.598Z,215.20
2019-01-10T00:16:58.721Z,215.23
2019-01-10T00:17:58.860Z,215.31
2019-01-10T00:18:58.979Z,215.31
2019-01-10T00:19:59.155Z,215.34
2019-01-10T00:20:59.362Z,215.27
2019-01-10T00:21:59.413Z,215.33
2019-01-10T00:22:59.552Z,215.39
2019-01-10T00:23:59.659Z,215.31
2019-01-10T00:24:59.795Z,215.35
2019-01-10T00:26:00.201Z,215.34
2019-01-10T00:27:00.108Z,215.27
2019-01-10T00:28:00.238Z,215.27
2019-01-10T00:29:00.420Z,215.31
2019-01-10T00:30:00.497Z,215.33
2019-01-10T00:31:00.665Z,215.39
2019-01-10T00:32:00.792Z,215.34
2019-01-10T00:33:00.937Z,215.31
2019-01-10T00:34:01.059Z,215.33
2019-01-10T00:35:01.222Z,215.27
2019-01-10T00:36:01.340Z,215.34
2019-01-10T00:37:01.501Z,215.35
2019-01-10T00:38:01.763Z,215.31
2019-01-10T00:39:01.766Z,215.39
2019-01-10T00:40:01.912Z,215.31
2019-01-10T00:41:02.056Z,215.36
2019-01-10T00:42:02.180Z,215.31
2019-01-10T00:43:02.335Z,215.33
2019-01-10T00:44:02.457Z,215.33
2019-01-10T00:45:02.602Z,215.33
2019-01-10T00:46:02.858Z,215.36
2019-01-10T00:47:02.874Z,215.33
2019-01-10T00:48:03.030Z,215.33
2019-01-10T00:49:03.147Z,215.31
2019-01-10T00:50:03.292Z,215.31
2019-01-10T00:51:03.445Z,215.33
2019-01-10T00:52:03.550Z,215.27
2019-01-10T00:53:03.724Z,215.33
2019-01-10T00:54:03.898Z,215.31
2019-01-10T00:55:03.974Z,215.31
2019-01-10T00:56:04.127Z,215.33
2019-01-10T00:57:04.229Z,215.34
2019-01-10T00:58:07.238Z,215.34
2019-01-10T00:59:04.525Z,215.31
2019-01-10T01:00:04.687Z,215.31
2019-01-10T01:01:04.817Z,215.35
2019-01-10T01:02:04.977Z,215.31
2019-01-10T01:03:05.066Z,215.34
2019-01-10T01:04:05.186Z,215.33
2019-01-10T01:05:05.346Z,215.33
2019-01-10T01:06:05.490Z,215.34
2019-01-10T01:07:05.617Z,215.31
2019-01-10T01:08:05.778Z,215.31
2019-01-10T01:09:05.925Z,215.26
2019-01-10T01:10:06.075Z,215.29
2019-01-10T01:11:06.249Z,215.33
2019-01-10T01:12:06.313Z,215.29
2019-01-10T01:13:06.476Z,215.20
2019-01-10T01:14:06.587Z,215.31
2019-01-10T01:15:06.712Z,215.34
2019-01-10T01:16:06.986Z,215.31
2019-01-10T01:17:07.006Z,215.27
2019-01-10T01:18:07.155Z,215.31
2019-01-10T01:19:07.427Z,215.33
2019-01-10T01:20:07.522Z,215.33
2019-01-10T01:21:07.616Z,215.31
2019-01-10T01:22:07.713Z,215.33
2019-01-10T01:23:07.872Z,215.31
2019-01-10T01:24:08.003Z,215.33
2019-01-10T01:25:08.138Z,215.31
2019-01-10T01:26:08.288Z,215.25
2019-01-10T01:27:08.506Z,215.36
2019-01-10T01:28:08.589Z,215.29
2019-01-10T01:29:08.722Z,215.29
2019-01-10T01:30:08.841Z,215.33
2019-01-10T01:31:08.982Z,215.37
2019-01-10T01:32:35.141Z,215.31
2019-01-10T01:33:09.282Z,215.33
2019-01-10T01:34:09.413Z,215.25
2019-01-10T01:35:09.599Z,215.27
2019-01-10T01:37:23.773Z,215.23
2019-01-10T01:38:22.019Z,215.22
2019-01-10T01:39:22.164Z,215.20
2019-01-10T01:40:22.300Z,215.33
2019-01-10T01:41:22.466Z,215.20
2019-01-10T01:42:22.558Z,215.26
2019-01-10T01:43:22.739Z,215.31
2019-01-10T01:44:22.938Z,215.37
2019-01-10T01:45:22.972Z,215.25
2019-01-10T01:46:23.112Z,215.22
2019-01-10T01:47:23.256Z,215.35
2019-01-10T01:48:23.437Z,215.36
2019-01-10T01:49:23.585Z,215.31
2019-01-10T01:50:23.704Z,215.31
2019-01-10T01:51:23.842Z,215.24
2019-01-10T01:52:24.056Z,215.22
2019-01-10T01:53:24.123Z,215.34
2019-01-10T01:54:24.273Z,215.33
2019-01-10T01:55:24.397Z,215.31
2019-01-10T01:56:24.540Z,215.20
2019-01-10T01:57:24.702Z,215.31
2019-01-10T01:58:24.844Z,215.31
2019-01-10T01:59:24.963Z,215.35
2019-01-10T02:00:25.151Z,215.24
2019-01-10T02:01:25.303Z,215.35
2019-01-10T02:02:25.412Z,215.26
2019-01-10T02:03:25.563Z,215.31
2019-01-10T02:04:25.898Z,215.24
2019-01-10T02:05:25.794Z,215.34
2019-01-10T02:06:25.949Z,215.26
2019-01-10T02:07:26.106Z,215.37
2019-01-10T02:08:26.258Z,215.27
2019-01-10T02:09:26.510Z,215.31
2019-01-10T02:10:26.502Z,215.34
2019-01-10T02:11:26.632Z,215.35
2019-01-10T02:12:26.789Z,215.27
2019-01-10T02:13:26.938Z,215.31
2019-01-10T02:14:27.081Z,215.31
2019-01-10T02:15:27.255Z,215.34
2019-01-10T02:16:27.333Z,215.35
2019-01-10T02:17:27.583Z,215.34
2019-01-10T02:18:27.636Z,215.31
2019-01-10T02:19:27.771Z,215.34
2019-01-10T02:20:27.878Z,215.39
2019-01-10T02:21:28.014Z,215.35
2019-01-10T02:22:28.184Z,215.40
2019-01-10T02:23:28.334Z,215.42
2019-01-10T02:24:28.463Z,215.42
2019-01-10T02:25:28.618Z,215.42
2019-01-10T02:26:28.687Z,215.35
2019-01-10T02:27:28.868Z,215.42
2019-01-10T02:28:29.034Z,215.42
2019-01-10T02:29:29.155Z,215.36
2019-01-10T02:30:29.276Z,215.39
2019-01-10T02:31:29.421Z,215.36
2019-01-10T02:32:29.585Z,215.37
2019-01-10T02:33:29.738Z,215.39
2019-01-10T02:34:29.929Z,215.35
2019-01-10T02:35:29.982Z,215.39
2019-01-10T02:36:30.123Z,215.38
2019-01-10T02:37:30.269Z,215.37
2019-01-10T02:38:30.404Z,215.38
2019-01-10T02:39:30.550Z,215.49
2019-01-10T02:40:30.677Z,215.45
2019-01-10T02:41:30.824Z,215.39
2019-01-10T02:42:31.052Z,215.42
2019-01-10T02:43:31.101Z,215.42
2019-01-10T02:44:31.227Z,215.50
2019-01-10T02:45:31.365Z,215.46
2019-01-10T02:46:31.497Z,215.47
2019-01-10T02:47:31.652Z,215.45
2019-01-10T02:48:31.816Z,215.42
2019-01-10T02:49:31.923Z,215.42
2019-01-10T02:50:32.192Z,215.42
2019-01-10T02:51:32.200Z,215.47
2019-01-10T02:52:32.359Z,215.45
2019-01-10T02:53:32.480Z,215.42
2019-01-10T02:54:32.627Z,215.47
2019-01-10T02:55:32.773Z,215.47
2019-01-10T02:56:32.910Z,215.40
2019-01-10T02:57:33.064Z,215.35
2019-01-10T02:58:33.246Z,215.38
2019-01-10T02:59:33.312Z,215.40
2019-01-10T03:00:33.447Z,215.39
2019-01-10T03:01:33.589Z,215.34
2019-01-10T03:02:33.743Z,215.39
2019-01-10T03:03:33.869Z,215.39
2019-01-10T03:04:34.010Z,215.36
2019-01-10T03:05:34.158Z,215.34
2019-01-10T03:06:34.297Z,215.35
2019-01-10T03:07:34.476Z,215.31
2019-01-10T03:08:34.550Z,215.38
2019-01-10T03:09:34.710Z,215.31
2019-01-10T03:10:34.850Z,215.31
2019-01-10T03:11:34.955Z,215.34
2019-01-10T03:12:35.126Z,215.31
2019-01-10T03:13:36.993Z,215.38
2019-01-10T03:14:35.444Z,215.34
2019-01-10T03:15:35.661Z,215.31
2019-01-10T03:16:35.661Z,215.33
2019-01-10T03:17:35.832Z,215.37
2019-01-10T03:18:35.960Z,215.35
2019-01-10T03:19:36.125Z,215.38
2019-01-10T03:20:36.318Z,215.38
2019-01-10T03:21:36.368Z,215.34
2019-01-10T03:22:36.507Z,215.34
2019-01-10T03:23:36.758Z,215.33
2019-01-10T03:24:36.809Z,215.34
2019-01-10T03:25:36.945Z,215.36
2019-01-10T03:26:37.065Z,215.40
2019-01-10T03:27:37.201Z,215.40
2019-01-10T03:28:37.347Z,215.39
2019-01-10T03:29:37.507Z,215.34
2019-01-10T03:30:37.643Z,215.40
2019-01-10T03:31:37.816Z,215.39
2019-01-10T03:32:37.886Z,215.39
2019-01-10T03:33:38.012Z,215.38
2019-01-10T03:34:38.187Z,215.36
2019-01-10T03:35:38.320Z,215.42
2019-01-10T03:36:38.439Z,215.37
2019-01-10T03:37:38.601Z,215.42
2019-01-10T03:38:38.722Z,215.42
2019-01-10T03:39:38.945Z,215.35
2019-01-10T03:40:39.199Z,215.36
2019-01-10T03:41:39.111Z,215.40
2019-01-10T03:42:39.272Z,215.37
2019-01-10T03:43:46.768Z,215.36
2019-01-10T03:44:40.572Z,215.49
2019-01-10T03:45:39.678Z,215.47
2019-01-10T03:46:39.813Z,215.42
2019-01-10T03:47:40.005Z,215.45
2019-01-10T03:48:40.209Z,215.46
2019-01-10T03:49:40.604Z,215.39
2019-01-10T03:50:40.392Z,215.42
2019-01-10T03:51:40.522Z,215.49
2019-01-10T03:52:40.675Z,215.46
2019-01-10T03:53:40.804Z,215.42
2019-01-10T03:54:40.941Z,215.45
2019-01-10T03:55:41.105Z,215.48
2019-01-10T03:56:41.320Z,215.40
2019-01-10T03:57:41.372Z,215.42
2019-01-10T03:58:41.512Z,215.47
2019-01-10T03:59:41.645Z,215.48
2019-01-10T04:00:41.806Z,215.46
2019-01-10T04:01:41.910Z,215.48
2019-01-10T04:02:42.184Z,215.48
2019-01-10T04:03:42.224Z,215.50
2019-01-10T04:04:42.432Z,215.46
2019-01-10T04:05:42.481Z,215.47
2019-01-10T04:06:42.597Z,215.45
2019-01-10T04:07:42.739Z,215.49
2019-01-10T04:08:42.917Z,215.48
2019-01-10T04:09:43.062Z,215.49
2019-01-10T04:10:43.191Z,215.47
2019-01-10T04:11:43.315Z,215.49
2019-01-10T04:12:43.525Z,215.48
2019-01-10T04:13:43.589Z,215.47
2019-01-10T04:14:43.752Z,215.45
2019-01-10T04:15:43.860Z,269.09
2019-01-10T04:16:43.990Z,268.81
2019-01-10T04:17:44.137Z,267.83
2019-01-10T04:18:44.281Z,269.03
2019-01-10T04:19:44.421Z,268.74
2019-01-10T04:20:44.617Z,269.04
2019-01-10T04:21:44.790Z,269.03
2019-01-10T04:22:44.874Z,269.35
2019-01-10T04:23:44.987Z,268.90
2019-01-10T04:24:45.151Z,267.64
2019-01-10T04:25:45.297Z,269.29
2019-01-10T04:26:45.408Z,268.18
2019-01-10T04:27:45.555Z,268.56
2019-01-10T04:28:45.722Z,267.98
2019-01-10T04:29:45.965Z,268.33
2019-01-10T04:30:46.375Z,268.07
2019-01-10T04:31:46.095Z,269.15
2019-01-10T04:32:46.242Z,269.28
2019-01-10T04:33:46.395Z,268.18
2019-01-10T04:34:46.524Z,268.67
2019-01-10T04:35:46.687Z,269.04
2019-01-10T04:36:46.819Z,268.89
2019-01-10T04:37:47.058Z,269.15
2019-01-10T04:38:47.102Z,269.93
2019-01-10T04:39:47.207Z,269.41
2019-01-10T04:40:47.384Z,269.28
2019-01-10T04:41:47.500Z,268.92
2019-01-10T04:42:47.647Z,268.96
2019-01-10T04:43:47.796Z,268.50
2019-01-10T04:44:47.913Z,268.90
2019-01-10T04:45:48.328Z,269.36
2019-01-10T04:46:48.161Z,268.84
2019-01-10T04:47:48.318Z,269.14
2019-01-10T04:48:48.482Z,268.73
2019-01-10T04:49:48.595Z,269.65
2019-01-10T04:50:48.752Z,269.86
2019-01-10T04:51:48.848Z,268.32
2019-01-10T04:52:48.985Z,268.32
2019-01-10T04:53:49.220Z,268.92
2019-01-10T04:54:49.278Z,268.84
2019-01-10T04:55:49.462Z,215.62
2019-01-10T04:56:49.558Z,269.08
2019-01-10T04:57:49.679Z,268.69
2019-01-10T04:58:49.853Z,268.20
2019-01-10T04:59:49.969Z,269.75
2019-01-10T05:00:50.146Z,267.09
2019-01-10T05:01:50.266Z,269.71
2019-01-10T05:02:50.452Z,268.42
2019-01-10T05:03:50.534Z,269.01
2019-01-10T05:04:50.655Z,268.19
2019-01-10T05:05:51.198Z,268.60
2019-01-10T05:06:50.930Z,269.87
2019-01-10T05:07:51.069Z,268.55
2019-01-10T05:08:51.207Z,267.92
2019-01-10T05:09:51.337Z,268.71
2019-01-10T05:10:51.677Z,268.07
2019-01-10T05:11:51.777Z,268.72
2019-01-10T05:12:51.787Z,268.75
2019-01-10T05:13:51.944Z,270.14
2019-01-10T05:14:52.079Z,269.49
2019-01-10T05:15:52.236Z,268.54
2019-01-10T05:16:52.367Z,268.88
2019-01-10T05:17:52.738Z,268.45
2019-01-10T05:18:52.719Z,268.44
2019-01-10T05:19:52.746Z,267.57
2019-01-10T05:20:52.927Z,269.03
2019-01-10T05:21:53.058Z,268.14
2019-01-10T05:22:53.180Z,267.53
2019-01-10T05:23:53.333Z,267.61
2019-01-10T05:24:53.455Z,268.79
2019-01-10T05:25:53.602Z,269.03
2019-01-10T05:26:53.807Z,269.38
2019-01-10T05:27:53.850Z,268.61
2019-01-10T05:28:54.003Z,268.76
2019-01-10T05:29:54.126Z,268.39
2019-01-10T05:30:54.279Z,268.39
2019-01-10T05:31:54.411Z,268.76
2019-01-10T05:32:54.549Z,268.69
2019-01-10T05:33:54.702Z,269.59
2019-01-10T05:34:54.853Z,215.83
2019-01-10T05:35:55.013Z,215.85
2019-01-10T05:36:55.115Z,215.91
2019-01-10T05:37:55.252Z,215.80
2019-01-10T05:38:55.406Z,215.85
2019-01-10T05:39:55.529Z,215.81
2019-01-10T05:40:55.688Z,215.84
2019-01-10T05:41:55.823Z,215.84
2019-01-10T05:42:55.936Z,215.85
2019-01-10T05:43:56.217Z,215.85
2019-01-10T05:44:56.220Z,215.82
2019-01-10T05:45:56.376Z,215.82
2019-01-10T05:46:56.491Z,215.82
2019-01-10T05:47:56.655Z,215.79
2019-01-10T05:48:56.801Z,215.90
2019-01-10T05:49:56.906Z,215.83
2019-01-10T05:50:57.055Z,215.87
2019-01-10T05:51:57.305Z,215.82
2019-01-10T05:52:57.304Z,215.84
2019-01-10T05:53:57.474Z,215.82
2019-01-10T05:54:57.590Z,215.87
2019-01-10T05:55:57.730Z,215.88
2019-01-10T05:56:57.884Z,215.88
2019-01-10T05:57:58.001Z,215.85
2019-01-10T05:58:58.156Z,215.82
2019-01-10T05:59:58.331Z,215.82
2019-01-10T06:00:58.412Z,215.84
2019-01-10T06:01:58.577Z,215.84
2019-01-10T06:02:58.701Z,215.83
2019-01-10T06:03:58.879Z,215.84
2019-01-10T06:04:58.949Z,215.81
2019-01-10T06:05:59.105Z,215.77
2019-01-10T06:06:59.257Z,215.82
2019-01-10T06:07:59.449Z,215.88
2019-01-10T06:08:59.604Z,215.83
2019-01-10T06:09:59.651Z,215.88
2019-01-10T06:10:59.827Z,215.82
2019-01-10T06:11:59.973Z,215.82
2019-01-10T06:13:00.095Z,215.81
2019-01-10T06:14:00.229Z,215.81
2019-01-10T06:15:00.376Z,215.91
2019-01-10T06:16:00.541Z,215.98
2019-01-10T06:17:24.442Z,215.91
2019-01-10T06:18:00.790Z,215.93
2019-01-10T06:19:00.925Z,215.93
2019-01-10T06:20:01.076Z,215.95
2019-01-10T06:21:01.227Z,215.95
2019-01-10T06:22:01.376Z,215.91
2019-01-10T06:23:01.483Z,215.99
2019-01-10T06:24:01.620Z,215.95
2019-01-10T06:25:01.902Z,215.96
2019-01-10T06:26:01.905Z,215.95
2019-01-10T06:27:02.061Z,215.95
2019-01-10T06:28:02.178Z,215.93
2019-01-10T06:29:02.414Z,215.96
2019-01-10T06:30:02.461Z,215.96
2019-01-10T06:31:02.619Z,215.95
2019-01-10T06:32:02.727Z,215.96
2019-01-10T06:33:02.923Z,216.06
2019-01-10T06:34:03.001Z,215.98
2019-01-10T06:35:03.153Z,215.99
2019-01-10T06:36:03.304Z,216.06
2019-01-10T06:37:03.528Z,215.99
2019-01-10T06:38:03.541Z,215.99
2019-01-10T06:39:03.693Z,216.01
2019-01-10T06:40:03.838Z,215.99
2019-01-10T06:41:04.007Z,215.99
2019-01-10T06:42:04.095Z,215.99
2019-01-10T06:43:04.212Z,216.01
2019-01-10T06:44:04.370Z,215.96
2019-01-10T06:45:04.546Z,216.03
2019-01-10T06:46:04.673Z,215.98
2019-01-10T06:47:04.817Z,215.99
2019-01-10T06:48:04.941Z,215.99
2019-01-10T06:49:05.112Z,215.99
2019-01-10T06:50:05.298Z,215.99
2019-01-10T06:51:05.344Z,215.96
2019-01-10T06:52:05.504Z,215.98
2019-01-10T06:53:05.625Z,215.99
2019-01-10T06:54:05.747Z,215.96
2019-01-10T06:55:05.923Z,215.98
2019-01-10T06:56:06.051Z,215.99
2019-01-10T06:57:06.432Z,215.96
2019-01-10T06:58:06.563Z,215.98
2019-01-10T06:59:06.445Z,215.94
2019-01-10T07:00:06.619Z,215.96
2019-01-10T07:01:06.756Z,215.96
2019-01-10T07:02:07.059Z,215.99
2019-01-10T07:03:07.025Z,215.98
2019-01-10T07:04:07.161Z,215.99
2019-01-10T07:05:07.342Z,215.95
2019-01-10T07:06:07.524Z,215.96
2019-01-10T07:07:07.576Z,215.96
2019-01-10T07:08:07.699Z,215.98
2019-01-10T07:09:07.843Z,215.96
2019-01-10T07:10:07.994Z,215.99
2019-01-10T07:11:08.122Z,215.96
2019-01-10T07:12:08.268Z,215.95
2019-01-10T07:13:08.411Z,215.99
2019-01-10T07:14:08.600Z,215.99
2019-01-10T07:15:08.672Z,216.01
2019-01-10T07:16:08.792Z,216.06
2019-01-10T07:17:08.915Z,216.03
2019-01-10T07:18:09.070Z,215.95
2019-01-10T07:19:09.203Z,215.99
2019-01-10T07:20:09.369Z,215.99
2019-01-10T07:21:09.480Z,216.01
2019-01-10T07:22:09.675Z,216.05
2019-01-10T07:23:09.806Z,216.05
2019-01-10T07:24:09.930Z,215.99
2019-01-10T07:25:10.117Z,215.99
2019-01-10T07:26:10.194Z,215.98
2019-01-10T07:27:10.327Z,215.95
2019-01-10T07:28:10.482Z,216.05
2019-01-10T07:29:10.637Z,215.99
2019-01-10T07:30:10.825Z,215.99
2019-01-10T07:31:11.040Z,215.99
2019-01-10T07:32:11.032Z,215.99
2019-01-10T07:33:49.019Z,215.99
2019-01-10T07:34:12.341Z,216.07
2019-01-10T07:35:11.490Z,215.99
2019-01-10T07:36:11.622Z,216.01
2019-01-10T07:37:12.958Z,215.95
2019-01-10T07:38:11.902Z,216.06
2019-01-10T07:39:12.139Z,215.99
2019-01-10T07:40:12.197Z,216.03
2019-01-10T07:41:12.329Z,215.99
2019-01-10T07:42:12.456Z,216.01
2019-01-10T07:43:12.597Z,216.04
2019-01-10T07:44:12.717Z,216.07
2019-01-10T07:45:12.973Z,216.04
2019-01-10T07:46:13.021Z,216.07
2019-01-10T07:47:13.185Z,216.01
2019-01-10T07:48:13.285Z,216.05
2019-01-10T07:49:13.396Z,216.05
2019-01-10T07:50:13.568Z,215.99
2019-01-10T07:51:13.713Z,216.10
2019-01-10T07:52:13.842Z,216.04
2019-01-10T07:53:13.996Z,216.06
2019-01-10T07:54:14.118Z,216.08
2019-01-10T07:55:14.333Z,215.99
2019-01-10T07:56:14.380Z,215.98
2019-01-10T07:57:14.524Z,216.10
2019-01-10T07:58:14.671Z,216.07
2019-01-10T07:59:14.800Z,216.10
2019-01-10T08:00:14.958Z,216.08
2019-01-10T08:01:15.088Z,216.10
2019-01-10T08:02:15.238Z,215.99
2019-01-10T08:03:15.401Z,216.03
2019-01-10T08:04:15.582Z,215.99
2019-01-10T08:05:15.664Z,216.05
2019-01-10T08:06:15.766Z,215.99
2019-01-10T08:07:15.927Z,215.99
2019-01-10T08:08:16.071Z,215.98
2019-01-10T08:09:16.192Z,216.10
2019-01-10T08:10:16.347Z,215.96
2019-01-10T08:11:16.484Z,216.01
2019-01-10T08:12:16.733Z,216.03
2019-01-10T08:13:16.762Z,216.01
2019-01-10T08:14:16.882Z,216.05
2019-01-10T08:15:17.043Z,216.04
2019-01-10T08:16:17.172Z,216.05
2019-01-10T08:17:17.291Z,216.12
2019-01-10T08:18:17.460Z,216.05
2019-01-10T08:19:17.583Z,216.04
2019-01-10T08:20:17.910Z,216.06
2019-01-10T08:21:17.855Z,216.04
2019-01-10T08:22:17.970Z,216.06
2019-01-10T08:23:18.125Z,215.99
2019-01-10T08:24:18.262Z,215.99
2019-01-10T08:25:18.403Z,216.04
2019-01-10T08:26:18.566Z,215.98
2019-01-10T08:27:18.693Z,215.99
2019-01-10T08:28:18.871Z,215.96
2019-01-10T08:29:18.951Z,215.99
2019-01-10T08:30:19.112Z,215.91
2019-01-10T08:31:19.271Z,215.98
2019-01-10T08:32:19.398Z,215.94
2019-01-10T08:33:19.550Z,215.99
2019-01-10T08:34:19.666Z,215.91
2019-01-10T08:35:19.820Z,215.99
2019-01-10T08:36:20.272Z,215.96
2019-01-10T08:37:20.161Z,215.91
2019-01-10T08:38:20.246Z,215.95
2019-01-10T08:39:20.376Z,215.99
2019-01-10T08:40:20.500Z,215.99
2019-01-10T08:41:20.693Z,215.91
2019-01-10T08:42:20.817Z,215.93
2019-01-10T08:43:20.941Z,215.95
2019-01-10T08:44:21.108Z,215.98
2019-01-10T08:45:22.075Z,216.01
2019-01-10T08:46:21.356Z,215.94
2019-01-10T08:47:21.504Z,215.95
2019-01-10T08:48:21.629Z,215.99
2019-01-10T08:49:21.757Z,215.95
2019-01-10T08:50:21.874Z,215.95
2019-01-10T08:51:22.029Z,215.94
2019-01-10T08:52:22.196Z,215.95
2019-01-10T08:53:22.430Z,215.95
2019-01-10T08:54:22.441Z,215.96
2019-01-10T08:55:22.565Z,215.96
2019-01-10T08:56:22.734Z,215.96
2019-01-10T08:57:23.131Z,215.98
2019-01-10T08:58:24.569Z,215.91
2019-01-10T08:59:23.146Z,215.98
2019-01-10T09:00:23.287Z,215.91
2019-01-10T09:01:23.459Z,215.90
2019-01-10T09:02:23.555Z,215.83
2019-01-10T09:03:23.730Z,215.82
2019-01-10T09:04:23.841Z,215.80
2019-01-10T09:05:23.979Z,215.81
2019-01-10T09:06:24.137Z,215.81
2019-01-10T09:07:24.280Z,215.76
2019-01-10T09:08:24.418Z,215.81
2019-01-10T09:09:24.567Z,215.71
2019-01-10T09:10:24.647Z,215.71
2019-01-10T09:11:24.817Z,215.79
2019-01-10T09:12:24.941Z,215.76
2019-01-10T09:13:25.088Z,215.79
2019-01-10T09:14:25.199Z,215.81
2019-01-10T09:15:33.943Z,215.76
2019-01-10T09:16:26.508Z,215.79
2019-01-10T09:17:25.675Z,215.74
2019-01-10T09:18:25.866Z,215.82
2019-01-10T09:19:25.930Z,215.82
2019-01-10T09:20:26.086Z,215.74
2019-01-10T09:21:26.242Z,215.76
2019-01-10T09:22:26.388Z,215.73
2019-01-10T09:23:26.545Z,215.74
2019-01-10T09:24:26.624Z,215.87
2019-01-10T09:25:26.766Z,215.83
2019-01-10T09:26:27.980Z,215.81
2019-01-10T09:27:28.047Z,215.88
2019-01-10T09:28:27.220Z,215.94
2019-01-10T09:29:27.313Z,215.87
2019-01-10T09:30:27.477Z,215.81
2019-01-10T09:31:27.635Z,215.85
2019-01-10T09:32:27.751Z,215.77
2019-01-10T09:33:27.915Z,215.76
2019-01-10T09:34:28.080Z,215.76
2019-01-10T09:35:28.171Z,215.73
2019-01-10T09:36:28.350Z,215.61
2019-01-10T09:37:28.481Z,215.70
2019-01-10T09:38:28.630Z,215.56
2019-01-10T09:39:28.774Z,215.59
2019-01-10T09:40:28.884Z,215.50
2019-01-10T09:41:29.021Z,215.53
2019-01-10T09:42:29.235Z,215.63
2019-01-10T09:43:29.298Z,215.56
2019-01-10T09:44:29.435Z,215.57
2019-01-10T09:45:29.551Z,215.57
2019-01-10T09:46:29.707Z,215.53
2019-01-10T09:47:29.823Z,215.48
2019-01-10T09:48:30.458Z,215.57
2019-01-10T09:49:30.132Z,215.53
2019-01-10T09:50:30.350Z,215.61
2019-01-10T09:51:30.437Z,215.59
2019-01-10T09:52:30.510Z,215.59
2019-01-10T09:53:30.691Z,215.51
2019-01-10T09:54:30.821Z,215.57
2019-01-10T09:55:30.941Z,215.57
2019-01-10T09:56:31.097Z,215.70
2019-01-10T09:57:32.099Z,215.65
2019-01-10T09:58:31.474Z,215.67
2019-01-10T09:59:31.636Z,215.65
2019-01-10T10:00:31.630Z,215.71
2019-01-10T10:01:31.783Z,215.63
2019-01-10T10:02:31.904Z,215.71
2019-01-10T10:03:32.032Z,215.80
2019-01-10T10:04:32.210Z,215.77
2019-01-10T10:05:32.317Z,215.77
2019-01-10T10:06:32.472Z,215.81
2019-01-10T10:07:32.718Z,215.76
2019-01-10T10:08:32.736Z,215.76
2019-01-10T10:09:32.883Z,215.65
2019-01-10T10:10:33.005Z,215.68
2019-01-10T10:11:34.263Z,215.61
2019-01-10T10:12:33.284Z,215.53
2019-01-10T10:13:33.449Z,215.60
2019-01-10T10:14:33.781Z,215.57
2019-01-10T10:15:33.740Z,215.53
2019-01-10T10:16:33.848Z,215.42
2019-01-10T10:17:33.977Z,215.45
2019-01-10T10:18:34.142Z,215.50
2019-01-10T10:19:34.275Z,215.55
2019-01-10T10:20:34.375Z,215.50
2019-01-10T10:21:34.543Z,215.48
2019-01-10T10:22:34.674Z,215.50
2019-01-10T10:23:34.879Z,215.51
2019-01-10T10:24:34.967Z,215.47
2019-01-10T10:25:35.100Z,215.47
2019-01-10T10:26:35.238Z,215.53
2019-01-10T10:27:35.372Z,268.57
2019-01-10T10:28:35.536Z,268.39
2019-01-10T10:29:35.666Z,267.86
2019-01-10T10:30:35.788Z,269.83
2019-01-10T10:31:35.939Z,268.17
2019-01-10T10:32:36.162Z,268.76
2019-01-10T10:33:36.261Z,269.54
2019-01-10T10:34:36.389Z,269.44
2019-01-10T10:35:36.508Z,267.73
2019-01-10T10:36:36.648Z,268.72
2019-01-10T10:37:36.786Z,267.49
2019-01-10T10:38:36.968Z,268.65
2019-01-10T10:39:37.091Z,268.50
2019-01-10T10:40:37.352Z,268.70
2019-01-10T10:41:37.330Z,268.15
2019-01-10T10:42:37.508Z,266.57
2019-01-10T10:43:37.695Z,215.56
2019-01-10T10:44:37.824Z,215.51
2019-01-10T10:45:37.943Z,215.53
2019-01-10T10:46:38.074Z,215.57
2019-01-10T10:47:38.237Z,215.49
2019-01-10T10:48:38.435Z,215.45
2019-01-10T10:49:38.497Z,215.40
2019-01-10T10:50:38.624Z,215.45
2019-01-10T10:51:38.756Z,215.39
2019-01-10T10:52:38.917Z,215.31
2019-01-10T10:53:39.046Z,215.33
2019-01-10T10:54:39.193Z,215.42
2019-01-10T10:55:39.329Z,215.42
2019-01-10T10:56:39.527Z,215.33
2019-01-10T10:57:39.607Z,215.24
2019-01-10T10:58:39.738Z,215.25
2019-01-10T10:59:39.866Z,215.17
2019-01-10T11:00:40.009Z,215.22
2019-01-10T11:01:40.166Z,215.17
2019-01-10T11:02:40.323Z,215.15
2019-01-10T11:03:40.468Z,215.12
2019-01-10T11:04:40.618Z,215.09
2019-01-10T11:05:45.600Z,215.12
2019-01-10T11:06:40.858Z,215.23
2019-01-10T11:07:41.015Z,215.20
2019-01-10T11:08:41.158Z,215.33
2019-01-10T11:09:41.293Z,215.19
2019-01-10T11:10:41.394Z,215.19
2019-01-10T11:11:41.549Z,215.16
2019-01-10T11:12:41.734Z,215.15
2019-01-10T11:13:41.979Z,215.15
2019-01-10T11:14:41.995Z,215.06
2019-01-10T11:15:42.764Z,215.09
2019-01-10T11:16:42.253Z,215.08
2019-01-10T11:17:42.408Z,215.17
2019-01-10T11:18:42.551Z,215.23
2019-01-10T11:19:42.685Z,215.23
2019-01-10T11:20:42.807Z,215.36
2019-01-10T11:21:43.058Z,215.36
2019-01-10T11:22:43.088Z,215.39
2019-01-10T11:23:43.240Z,215.46
2019-01-10T11:24:43.362Z,215.48
2019-01-10T11:25:43.484Z,215.50
2019-01-10T11:26:43.623Z,215.38
2019-01-10T11:27:43.766Z,215.20
2019-01-10T11:28:44.007Z,215.27
2019-01-10T11:29:44.169Z,215.16
2019-01-10T11:30:44.240Z,215.10
2019-01-10T11:31:44.385Z,215.16
2019-01-10T11:32:44.544Z,215.15
2019-01-10T11:33:44.657Z,215.12
2019-01-10T11:34:44.797Z,215.10
2019-01-10T11:35:44.975Z,215.06
2019-01-10T11:36:45.070Z,215.17
2019-01-10T11:37:45.303Z,215.19
2019-01-10T11:38:45.392Z,215.13
2019-01-10T11:39:45.501Z,215.10
2019-01-10T11:40:45.653Z,215.09
2019-01-10T11:41:45.792Z,215.05
2019-01-10T11:42:45.942Z,215.19
2019-01-10T11:43:46.080Z,215.22
2019-01-10T11:44:46.195Z,215.20
2019-01-10T11:45:46.376Z,215.26
2019-01-10T11:46:46.625Z,215.27
2019-01-10T11:47:46.684Z,215.34
2019-01-10T11:48:46.814Z,215.46
2019-01-10T11:49:46.940Z,215.37
2019-01-10T11:50:47.080Z,215.46
2019-01-10T11:51:47.205Z,215.39
2019-01-10T11:52:47.585Z,215.42
2019-01-10T11:53:47.477Z,215.39
2019-01-10T11:54:49.882Z,215.37
2019-01-10T11:55:47.769Z,215.24
2019-01-10T11:56:47.897Z,215.10
2019-01-10T11:57:48.053Z,215.10
2019-01-10T11:58:48.175Z,214.94
2019-01-10T11:59:48.339Z,214.94
2019-01-10T12:00:48.455Z,214.89
2019-01-10T12:01:48.590Z,214.94
2019-01-10T12:02:48.822Z,214.97
2019-01-10T12:03:48.871Z,215.05
2019-01-10T12:04:49.042Z,215.16
2019-01-10T12:05:52.793Z,215.15
2019-01-10T12:06:49.271Z,215.10
2019-01-10T12:07:49.445Z,215.11
2019-01-10T12:08:49.567Z,215.10
2019-01-10T12:09:49.716Z,215.13
2019-01-10T12:10:49.933Z,215.20
2019-01-10T12:11:49.957Z,215.22
2019-01-10T12:12:50.164Z,215.19
2019-01-10T12:13:50.245Z,215.23
2019-01-10T12:14:50.405Z,215.20
2019-01-10T12:15:50.545Z,215.26
2019-01-10T12:16:50.667Z,215.22
2019-01-10T12:17:50.823Z,215.22
2019-01-10T12:18:59.018Z,215.16
2019-01-10T12:19:52.153Z,215.17
2019-01-10T12:20:51.238Z,215.20
2019-01-10T12:21:51.356Z,215.19
2019-01-10T12:22:51.517Z,215.13
2019-01-10T12:23:51.620Z,215.05
2019-01-10T12:24:51.798Z,215.05
2019-01-10T12:25:51.927Z,215.05
2019-01-10T12:26:52.091Z,215.05
2019-01-10T12:27:52.351Z,214.97
2019-01-10T12:28:52.307Z,215.03
2019-01-10T12:29:52.483Z,215.16
2019-01-10T12:30:52.613Z,215.09
2019-01-10T12:31:52.735Z,215.16